createdAt,value
2017-04-21T00:00:09.628Z,0
2017-04-21T00:01:19.039Z,0
2017-04-21T00:02:27.814Z,0
2017-04-21T00:03:37.218Z,0
2017-04-21T00:04:46.935Z,0
2017-04-21T00:05:55.709Z,0
2017-04-21T00:07:04.795Z,0
2017-04-21T00:08:13.835Z,0
2017-04-21T00:09:23.809Z,0
2017-04-21T00:10:33.188Z,0
2017-04-21T00:11:41.971Z,0
2017-04-21T00:12:51.690Z,0
2017-04-21T00:14:00.780Z,0
2017-04-21T00:15:09.564Z,0
2017-04-21T00:16:18.967Z,0
2017-04-21T00:17:28.349Z,0
2017-04-21T00:18:37.745Z,0
2017-04-21T00:19:47.784Z,0
2017-04-21T00:20:57.638Z,0
2017-04-21T00:22:07.034Z,0
2017-04-21T00:23:16.121Z,0
2017-04-21T00:24:25.376Z,0
2017-04-21T00:25:34.161Z,0
2017-04-21T00:26:42.884Z,0
2017-04-21T00:27:51.652Z,0
2017-04-21T00:29:01.055Z,0
2017-04-21T00:30:10.140Z,0
2017-04-21T00:31:19.221Z,0
2017-04-21T00:32:28.616Z,0
2017-04-21T00:33:37.684Z,0
2017-04-21T00:34:47.381Z,0
2017-04-21T00:35:56.770Z,0
2017-04-21T00:37:05.555Z,0
2017-04-21T00:38:14.979Z,0
2017-04-21T00:39:24.065Z,0
2017-04-21T00:40:33.150Z,0
2017-04-21T00:41:42.143Z,0
2017-04-21T00:42:51.189Z,0
2017-04-21T00:44:00.567Z,0
2017-04-21T00:45:09.651Z,0
2017-04-21T00:46:18.739Z,0
2017-04-21T00:47:27.830Z,0
2017-04-21T00:48:36.591Z,0
2017-04-21T00:49:45.658Z,0
2017-04-21T00:50:54.747Z,0
2017-04-21T00:52:03.822Z,0
2017-04-21T00:53:12.904Z,0
2017-04-21T00:54:22.290Z,0
2017-04-21T00:55:31.636Z,0
2017-04-21T00:56:41.004Z,0
2017-04-21T00:57:51.009Z,0
2017-04-21T00:59:00.092Z,0
2017-04-21T01:00:09.188Z,0
2017-04-21T01:01:18.607Z,0
2017-04-21T01:02:27.717Z,0
2017-04-21T01:03:36.802Z,0
2017-04-21T01:04:46.449Z,0
2017-04-21T01:05:55.210Z,0
2017-04-21T01:07:04.605Z,0
2017-04-21T01:08:13.390Z,0
2017-04-21T01:09:22.727Z,0
2017-04-21T01:10:31.495Z,0
2017-04-21T01:11:40.594Z,0
2017-04-21T01:12:50.908Z,0
2017-04-21T01:14:00.313Z,0
2017-04-21T01:15:09.097Z,0
2017-04-21T01:16:18.181Z,0
2017-04-21T01:17:27.594Z,0
2017-04-21T01:18:36.674Z,0
2017-04-21T01:19:45.458Z,0
2017-04-21T01:20:54.231Z,0
2017-04-21T01:22:03.301Z,0
2017-04-21T01:23:12.382Z,0
2017-04-21T01:24:21.986Z,0
2017-04-21T01:25:30.767Z,0
2017-04-21T01:26:39.853Z,0
2017-04-21T01:27:49.557Z,0
2017-04-21T01:28:58.959Z,0
2017-04-21T01:30:08.043Z,0
2017-04-21T01:31:16.815Z,0
2017-04-21T01:32:25.900Z,0
2017-04-21T01:33:35.655Z,0
2017-04-21T01:34:44.738Z,0
2017-04-21T01:35:53.532Z,0
2017-04-21T01:37:02.397Z,0
2017-04-21T01:38:12.060Z,0
2017-04-21T01:39:21.399Z,0
2017-04-21T01:40:30.122Z,0
2017-04-21T01:41:38.881Z,0
2017-04-21T01:42:48.577Z,0
2017-04-21T01:43:57.610Z,0
2017-04-21T01:45:06.982Z,0
2017-04-21T01:46:15.767Z,0
2017-04-21T01:47:24.850Z,0
2017-04-21T01:48:33.630Z,0
2017-04-21T01:49:42.703Z,0
2017-04-21T01:50:51.805Z,0
2017-04-21T01:52:00.894Z,0
2017-04-21T01:53:09.665Z,0
2017-04-21T01:54:19.062Z,0
2017-04-21T01:55:28.148Z,0
2017-04-21T01:56:37.120Z,0
2017-04-21T01:57:46.520Z,0
2017-04-21T01:58:56.516Z,0
2017-04-21T02:00:05.297Z,0
2017-04-21T02:01:14.083Z,0
2017-04-21T02:02:22.873Z,0
2017-04-21T02:03:32.250Z,0
2017-04-21T02:04:41.333Z,0
2017-04-21T02:05:50.590Z,0
2017-04-21T02:06:59.364Z,0
2017-04-21T02:08:08.147Z,0
2017-04-21T02:09:16.924Z,0
2017-04-21T02:10:26.921Z,0
2017-04-21T02:11:35.703Z,0
2017-04-21T02:12:45.348Z,0
2017-04-21T02:13:54.418Z,0
2017-04-21T02:15:04.109Z,0
2017-04-21T02:16:12.901Z,0
2017-04-21T02:17:22.234Z,0
2017-04-21T02:18:31.980Z,0
2017-04-21T02:19:41.053Z,0
2017-04-21T02:20:50.145Z,0
2017-04-21T02:21:59.230Z,0
2017-04-21T02:23:08.630Z,0
2017-04-21T02:24:18.033Z,0
2017-04-21T02:25:27.420Z,0
2017-04-21T02:26:36.757Z,0
2017-04-21T02:27:45.841Z,0
2017-04-21T02:28:55.225Z,0
2017-04-21T02:30:04.616Z,0
2017-04-21T02:31:13.386Z,0
2017-04-21T02:32:22.182Z,0
2017-04-21T02:33:31.525Z,0
2017-04-21T02:34:41.168Z,0
2017-04-21T02:35:49.937Z,0
2017-04-21T02:36:58.719Z,0
2017-04-21T02:38:07.833Z,0
2017-04-21T02:39:16.921Z,0
2017-04-21T02:40:26.257Z,0
2017-04-21T02:41:35.331Z,0
2017-04-21T02:42:44.123Z,0
2017-04-21T02:43:53.617Z,0
2017-04-21T02:45:02.918Z,0
2017-04-21T02:46:12.088Z,0
2017-04-21T02:47:21.161Z,0
2017-04-21T02:48:30.290Z,0
2017-04-21T02:49:39.356Z,0
2017-04-21T02:50:48.217Z,0
2017-04-21T02:51:57.001Z,0
2017-04-21T02:53:05.781Z,0
2017-04-21T02:54:15.470Z,0
2017-04-21T02:55:24.186Z,0
2017-04-21T02:56:33.252Z,0
2017-04-21T02:57:42.278Z,0
2017-04-21T02:58:51.345Z,0
2017-04-21T03:00:00.721Z,0
2017-04-21T03:01:09.785Z,0
2017-04-21T03:02:18.545Z,0
2017-04-21T03:03:27.921Z,0
2017-04-21T03:04:36.688Z,0
2017-04-21T03:05:46.075Z,0
2017-04-21T03:06:54.834Z,0
2017-04-21T03:08:04.215Z,0
2017-04-21T03:09:13.900Z,0
2017-04-21T03:10:22.662Z,0
2017-04-21T03:11:31.682Z,0
2017-04-21T03:12:41.316Z,0
2017-04-21T03:13:50.074Z,0
2017-04-21T03:14:59.144Z,0
2017-04-21T03:16:07.917Z,0
2017-04-21T03:17:17.310Z,0
2017-04-21T03:18:26.694Z,0
2017-04-21T03:19:35.463Z,0
2017-04-21T03:20:44.533Z,0
2017-04-21T03:21:53.307Z,0
2017-04-21T03:23:02.387Z,0
2017-04-21T03:24:11.155Z,0
2017-04-21T03:25:19.929Z,0
2017-04-21T03:26:28.704Z,0
2017-04-21T03:27:37.477Z,0
2017-04-21T03:28:47.161Z,0
2017-04-21T03:29:56.852Z,0
2017-04-21T03:31:05.621Z,0
2017-04-21T03:32:15.000Z,0
2017-04-21T03:33:24.374Z,0
2017-04-21T03:34:33.444Z,0
2017-04-21T03:35:42.209Z,0
2017-04-21T03:36:50.990Z,0
2017-04-21T03:38:00.652Z,0
2017-04-21T03:39:09.726Z,0
2017-04-21T03:40:18.790Z,0
2017-04-21T03:41:27.811Z,0
2017-04-21T03:42:36.820Z,0
2017-04-21T03:43:46.484Z,0
2017-04-21T03:44:55.253Z,0
2017-04-21T03:46:04.626Z,0
2017-04-21T03:47:14.307Z,0
2017-04-21T03:48:23.380Z,0
2017-04-21T03:49:32.394Z,0
2017-04-21T03:50:41.759Z,0
2017-04-21T03:51:50.523Z,0
2017-04-21T03:52:59.891Z,0
2017-04-21T03:54:08.601Z,0
2017-04-21T03:55:17.974Z,0
2017-04-21T03:56:27.144Z,0
2017-04-21T03:57:36.000Z,0
2017-04-21T03:58:45.324Z,0
2017-04-21T03:59:54.530Z,0
2017-04-21T04:01:03.700Z,0
2017-04-21T04:02:12.457Z,0
2017-04-21T04:03:21.527Z,0
2017-04-21T04:04:30.909Z,0
2017-04-21T04:05:39.672Z,4
2017-04-21T04:06:48.743Z,4
2017-04-21T04:07:58.119Z,4
2017-04-21T04:09:08.105Z,0
2017-04-21T04:10:17.185Z,0
2017-04-21T04:11:26.294Z,4
2017-04-21T04:12:35.371Z,4
2017-04-21T04:13:44.443Z,0
2017-04-21T04:14:54.133Z,4
2017-04-21T04:16:03.477Z,4
2017-04-21T04:17:12.198Z,4
2017-04-21T04:18:20.903Z,8
2017-04-21T04:19:30.217Z,8
2017-04-21T04:20:38.969Z,8
2017-04-21T04:21:48.047Z,12
2017-04-21T04:22:57.371Z,12
2017-04-21T04:24:06.125Z,12
2017-04-21T04:25:15.137Z,12
2017-04-21T04:26:24.147Z,16
2017-04-21T04:27:33.309Z,16
2017-04-21T04:28:42.368Z,20
2017-04-21T04:29:51.135Z,20
2017-04-21T04:30:59.854Z,16
2017-04-21T04:32:08.880Z,20
2017-04-21T04:33:17.630Z,20
2017-04-21T04:34:26.709Z,24
2017-04-21T04:35:35.475Z,28
2017-04-21T04:36:44.201Z,28
2017-04-21T04:37:52.898Z,36
2017-04-21T04:39:01.655Z,40
2017-04-21T04:40:11.034Z,40
2017-04-21T04:41:20.118Z,48
2017-04-21T04:42:28.836Z,48
2017-04-21T04:43:37.898Z,52
2017-04-21T04:44:47.886Z,56
2017-04-21T04:45:56.655Z,68
2017-04-21T04:47:05.421Z,72
2017-04-21T04:48:14.755Z,72
2017-04-21T04:49:24.429Z,72
2017-04-21T04:50:33.854Z,76
2017-04-21T04:51:42.922Z,88
2017-04-21T04:52:51.983Z,96
2017-04-21T04:54:01.657Z,100
2017-04-21T04:55:11.037Z,104
2017-04-21T04:56:20.083Z,112
2017-04-21T04:57:29.155Z,112
2017-04-21T04:58:38.230Z,120
2017-04-21T04:59:47.015Z,132
2017-04-21T05:00:56.346Z,148
2017-04-21T05:02:05.121Z,152
2017-04-21T05:03:14.088Z,164
2017-04-21T05:04:23.154Z,168
2017-04-21T05:05:32.340Z,160
2017-04-21T05:06:42.290Z,160
2017-04-21T05:07:52.247Z,172
2017-04-21T05:09:01.699Z,164
2017-04-21T05:10:11.169Z,152
2017-04-21T05:11:20.544Z,148
2017-04-21T05:12:29.927Z,152
2017-04-21T05:13:39.306Z,164
2017-04-21T05:14:48.021Z,168
2017-04-21T05:15:57.375Z,160
2017-04-21T05:17:06.142Z,156
2017-04-21T05:18:15.519Z,156
2017-04-21T05:19:24.279Z,164
2017-04-21T05:20:33.043Z,172
2017-04-21T05:21:42.113Z,176
2017-04-21T05:22:51.129Z,196
2017-04-21T05:24:00.802Z,212
2017-04-21T05:25:09.873Z,196
2017-04-21T05:26:18.909Z,160
2017-04-21T05:27:28.283Z,136
2017-04-21T05:28:37.047Z,140
2017-04-21T05:29:46.117Z,148
2017-04-21T05:30:54.880Z,156
2017-04-21T05:32:03.959Z,160
2017-04-21T05:33:13.033Z,164
2017-04-21T05:34:22.664Z,192
2017-04-21T05:35:31.426Z,208
2017-04-21T05:36:40.708Z,228
2017-04-21T05:37:49.782Z,256
2017-04-21T05:38:58.864Z,284
2017-04-21T05:40:07.925Z,308
2017-04-21T05:41:16.950Z,300
2017-04-21T05:42:26.007Z,276
2017-04-21T05:43:35.282Z,256
2017-04-21T05:44:44.061Z,244
2017-04-21T05:45:53.129Z,248
2017-04-21T05:47:01.894Z,248
2017-04-21T05:48:10.667Z,248
2017-04-21T05:49:19.999Z,268
2017-04-21T05:50:29.029Z,276
2017-04-21T05:51:38.041Z,272
2017-04-21T05:52:46.797Z,296
2017-04-21T05:53:56.175Z,340
2017-04-21T05:55:04.955Z,372
2017-04-21T05:56:13.971Z,376
2017-04-21T05:57:23.033Z,332
2017-04-21T05:58:31.797Z,328
2017-04-21T05:59:41.156Z,304
2017-04-21T06:00:50.228Z,268
2017-04-21T06:01:59.617Z,264
2017-04-21T06:03:08.945Z,300
2017-04-21T06:04:18.014Z,328
2017-04-21T06:05:27.394Z,292
2017-04-21T06:06:36.162Z,316
2017-04-21T06:07:45.554Z,332
2017-04-21T06:08:54.926Z,336
2017-04-21T06:10:04.621Z,344
2017-04-21T06:11:13.693Z,340
2017-04-21T06:12:23.064Z,352
2017-04-21T06:13:31.805Z,480
2017-04-21T06:14:40.870Z,468
2017-04-21T06:15:50.249Z,396
2017-04-21T06:16:59.010Z,348
2017-04-21T06:18:07.774Z,320
2017-04-21T06:19:17.466Z,296
2017-04-21T06:20:26.423Z,268
2017-04-21T06:21:35.395Z,256
2017-04-21T06:22:45.453Z,228
2017-04-21T06:23:54.835Z,204
2017-04-21T06:25:04.750Z,220
2017-04-21T06:26:14.072Z,240
2017-04-21T06:27:22.830Z,308
2017-04-21T06:28:32.519Z,356
2017-04-21T06:29:41.601Z,300
2017-04-21T06:30:50.669Z,324
2017-04-21T06:31:59.439Z,440
2017-04-21T06:33:08.515Z,520
2017-04-21T06:34:17.537Z,572
2017-04-21T06:35:27.561Z,552
2017-04-21T06:36:36.632Z,560
2017-04-21T06:37:45.727Z,612
2017-04-21T06:38:55.717Z,588
2017-04-21T06:40:05.094Z,568
2017-04-21T06:41:14.160Z,552
2017-04-21T06:42:22.925Z,544
2017-04-21T06:43:31.753Z,568
2017-04-21T06:44:40.522Z,588
2017-04-21T06:45:49.241Z,560
2017-04-21T06:46:58.301Z,504
2017-04-21T06:48:07.321Z,452
2017-04-21T06:49:16.089Z,400
2017-04-21T06:50:24.853Z,376
2017-04-21T06:51:33.620Z,384
2017-04-21T06:52:42.390Z,432
2017-04-21T06:53:51.768Z,412
2017-04-21T06:55:01.141Z,416
2017-04-21T06:56:09.908Z,424
2017-04-21T06:57:18.664Z,380
2017-04-21T06:58:27.844Z,368
2017-04-21T06:59:37.226Z,404
2017-04-21T07:00:46.601Z,416
2017-04-21T07:01:55.385Z,456
2017-04-21T07:03:04.774Z,456
2017-04-21T07:04:14.452Z,408
2017-04-21T07:05:23.472Z,368
2017-04-21T07:06:32.545Z,344
2017-04-21T07:07:41.326Z,352
2017-04-21T07:08:51.006Z,360
2017-04-21T07:10:00.677Z,388
2017-04-21T07:11:10.049Z,452
2017-04-21T07:12:19.738Z,500
2017-04-21T07:13:28.815Z,516
2017-04-21T07:14:37.891Z,504
2017-04-21T07:15:46.666Z,476
2017-04-21T07:16:55.434Z,452
2017-04-21T07:18:04.817Z,432
2017-04-21T07:19:13.589Z,448
2017-04-21T07:20:22.685Z,492
2017-04-21T07:21:31.443Z,568
2017-04-21T07:22:40.513Z,460
2017-04-21T07:23:50.283Z,444
2017-04-21T07:24:59.816Z,428
2017-04-21T07:26:09.134Z,380
2017-04-21T07:27:18.302Z,356
2017-04-21T07:28:28.306Z,344
2017-04-21T07:29:37.081Z,348
2017-04-21T07:30:46.170Z,360
2017-04-21T07:31:54.939Z,392
2017-04-21T07:33:03.704Z,436
2017-04-21T07:34:12.790Z,480
2017-04-21T07:35:21.550Z,448
2017-04-21T07:36:30.564Z,396
2017-04-21T07:37:39.632Z,384
2017-04-21T07:39:00.618Z,412
2017-04-21T07:40:09.412Z,504
2017-04-21T07:41:18.305Z,552
2017-04-21T07:42:27.386Z,552
2017-04-21T07:43:36.807Z,480
2017-04-21T07:44:45.819Z,468
2017-04-21T07:45:54.570Z,508
2017-04-21T07:47:03.646Z,532
2017-04-21T07:48:12.715Z,560
2017-04-21T07:49:21.737Z,552
2017-04-21T07:50:31.111Z,548
2017-04-21T07:51:39.865Z,584
2017-04-21T07:52:48.937Z,660
2017-04-21T07:53:58.330Z,708
2017-04-21T07:55:07.698Z,756
2017-04-21T07:56:17.069Z,792
2017-04-21T07:57:26.119Z,788
2017-04-21T07:58:35.698Z,700
2017-04-21T07:59:44.780Z,712
2017-04-21T08:01:22.014Z,760
2017-04-21T08:02:31.088Z,732
2017-04-21T08:03:40.110Z,732
2017-04-21T08:04:49.164Z,792
2017-04-21T08:05:58.264Z,808
2017-04-21T08:07:07.033Z,684
2017-04-21T08:08:16.100Z,688
2017-04-21T08:09:24.902Z,708
2017-04-21T08:10:33.693Z,772
2017-04-21T08:11:42.448Z,844
2017-04-21T08:12:51.520Z,860
2017-04-21T08:14:00.919Z,832
2017-04-21T08:15:09.688Z,772
2017-04-21T08:16:18.456Z,804
2017-04-21T08:17:27.526Z,936
2017-04-21T08:18:36.593Z,852
2017-04-21T08:19:45.971Z,880
2017-04-21T08:20:54.986Z,992
2017-04-21T08:22:04.045Z,1116
2017-04-21T08:23:13.115Z,936
2017-04-21T08:24:22.202Z,916
2017-04-21T08:25:31.422Z,996
2017-04-21T08:26:40.173Z,936
2017-04-21T08:27:49.553Z,972
2017-04-21T08:28:58.582Z,992
2017-04-21T08:30:07.643Z,1036
2017-04-21T08:31:16.411Z,1104
2017-04-21T08:32:25.506Z,1040
2017-04-21T08:33:34.579Z,1000
2017-04-21T08:34:43.959Z,972
2017-04-21T08:35:52.744Z,952
2017-04-21T08:37:01.500Z,916
2017-04-21T08:38:10.269Z,868
2017-04-21T08:39:20.259Z,716
2017-04-21T08:40:29.026Z,684
2017-04-21T08:41:37.806Z,728
2017-04-21T08:42:46.542Z,772
2017-04-21T08:43:55.891Z,748
2017-04-21T08:45:05.217Z,724
2017-04-21T08:46:13.922Z,748
2017-04-21T08:47:22.922Z,700
2017-04-21T08:48:31.679Z,648
2017-04-21T08:49:40.751Z,664
2017-04-21T08:50:49.539Z,716
2017-04-21T08:51:58.675Z,724
2017-04-21T08:53:07.741Z,660
2017-04-21T08:54:16.764Z,624
2017-04-21T08:55:25.835Z,604
2017-04-21T08:56:35.201Z,604
2017-04-21T08:57:44.287Z,632
2017-04-21T08:58:53.973Z,724
2017-04-21T09:00:03.058Z,740
2017-04-21T09:01:12.130Z,704
2017-04-21T09:02:20.891Z,700
2017-04-21T09:03:30.241Z,684
2017-04-21T09:04:38.993Z,632
2017-04-21T09:05:48.060Z,624
2017-04-21T09:06:57.147Z,568
2017-04-21T09:08:06.552Z,552
2017-04-21T09:09:15.629Z,584
2017-04-21T09:10:24.411Z,636
2017-04-21T09:11:34.057Z,632
2017-04-21T09:12:43.345Z,612
2017-04-21T09:13:52.404Z,548
2017-04-21T09:15:02.547Z,532
2017-04-21T09:16:11.560Z,520
2017-04-21T09:17:20.267Z,560
2017-04-21T09:18:28.995Z,588
2017-04-21T09:19:38.380Z,616
2017-04-21T09:20:47.355Z,596
2017-04-21T09:21:56.069Z,592
2017-04-21T09:23:04.879Z,568
2017-04-21T09:24:13.909Z,576
2017-04-21T09:25:22.918Z,536
2017-04-21T09:26:31.981Z,504
2017-04-21T09:27:40.757Z,524
2017-04-21T09:28:49.578Z,512
2017-04-21T09:29:58.961Z,496
2017-04-21T09:31:08.350Z,536
2017-04-21T09:36:20.094Z,452
2017-04-21T09:37:30.144Z,496
2017-04-21T09:38:58.214Z,588
2017-04-21T09:40:07.181Z,496
2017-04-21T09:41:15.994Z,488
2017-04-21T09:43:47.812Z,772
2017-04-21T09:44:56.585Z,876
2017-04-21T09:46:05.608Z,940
2017-04-21T09:47:14.361Z,1048
2017-04-21T09:48:23.126Z,1204
2017-04-21T09:49:32.198Z,1264
2017-04-21T09:50:41.571Z,1248
2017-04-21T09:57:50.341Z,1028
2017-04-21T10:08:35.044Z,1176
2017-04-21T10:09:44.761Z,1064
2017-04-21T10:10:53.835Z,904
2017-04-21T10:12:02.658Z,788
2017-04-21T10:13:11.777Z,748
2017-04-21T10:14:21.114Z,712
2017-04-21T10:15:29.883Z,724
2017-04-21T10:16:38.648Z,656
2017-04-21T10:17:47.439Z,544
2017-04-21T10:18:56.761Z,592
2017-04-21T10:20:05.815Z,676
2017-04-21T10:21:14.890Z,780
2017-04-21T10:22:24.220Z,856
2017-04-21T10:23:33.839Z,1012
2017-04-21T10:24:43.800Z,1072
2017-04-21T10:25:52.825Z,1344
2017-04-21T10:27:01.881Z,1864
2017-04-21T10:28:10.900Z,2660
2017-04-21T10:29:19.906Z,2448
2017-04-21T10:30:29.212Z,3608
2017-04-21T10:31:37.972Z,4524
2017-04-21T10:32:46.763Z,3808
2017-04-21T10:33:55.842Z,2944
2017-04-21T10:35:04.615Z,3592
2017-04-21T10:36:13.390Z,28096
2017-04-21T10:37:22.154Z,9284
2017-04-21T10:38:31.827Z,4160
2017-04-21T10:39:40.904Z,3076
2017-04-21T10:40:49.669Z,2964
2017-04-21T10:41:58.446Z,18912
2017-04-21T10:43:07.530Z,29120
2017-04-21T10:44:16.914Z,12132
2017-04-21T10:45:25.974Z,7920
2017-04-21T10:46:34.744Z,2612
2017-04-21T10:47:43.819Z,2268
2017-04-21T10:48:53.627Z,2388
2017-04-21T10:50:02.895Z,3132
2017-04-21T10:51:12.310Z,4664
2017-04-21T10:52:22.111Z,2312
2017-04-21T10:53:31.571Z,2084
2017-04-21T10:54:41.452Z,3220
2017-04-21T10:55:50.462Z,12572
2017-04-21T10:56:59.478Z,9848
2017-04-21T10:58:08.480Z,2972
2017-04-21T10:59:17.188Z,2212
2017-04-21T11:00:26.812Z,2384
2017-04-21T11:01:35.820Z,8692
2017-04-21T11:02:44.825Z,32768
2017-04-21T11:03:54.586Z,29600
2017-04-21T11:05:03.282Z,16864
2017-04-21T11:06:12.285Z,49408
2017-04-21T11:07:20.976Z,44928
2017-04-21T11:08:29.680Z,45888
2017-04-21T11:09:38.689Z,14708
2017-04-21T11:10:48.163Z,23680
2017-04-21T11:11:57.008Z,3304
2017-04-21T11:13:06.070Z,1944
2017-04-21T11:14:15.384Z,2692
2017-04-21T11:15:25.002Z,2980
2017-04-21T11:16:34.548Z,38208
2017-04-21T11:17:43.934Z,42816
2017-04-21T11:18:53.136Z,29568
2017-04-21T11:20:02.335Z,36800
2017-04-21T11:21:11.211Z,8280
2017-04-21T11:22:19.917Z,30400
2017-04-21T11:23:29.309Z,28256
2017-04-21T11:24:38.319Z,8556
2017-04-21T11:25:47.024Z,5132
2017-04-21T11:26:55.784Z,3108
2017-04-21T11:28:04.857Z,8420
2017-04-21T11:29:14.181Z,8964
2017-04-21T11:30:23.242Z,4308
2017-04-21T11:31:32.616Z,2556
2017-04-21T11:32:42.000Z,2784
2017-04-21T11:33:51.323Z,7448
2017-04-21T11:35:00.642Z,2712
2017-04-21T11:36:09.693Z,8816
2017-04-21T11:37:18.467Z,6936
2017-04-21T11:38:27.767Z,6216
2017-04-21T11:39:36.825Z,7856
2017-04-21T11:40:45.643Z,11760
2017-04-21T11:41:54.395Z,5820
2017-04-21T11:43:03.162Z,5180
2017-04-21T11:44:11.944Z,5104
2017-04-21T11:45:21.093Z,6100
2017-04-21T11:46:29.863Z,4252
2017-04-21T11:47:38.637Z,3764
2017-04-21T11:48:47.406Z,3372
2017-04-21T11:49:56.781Z,2584
2017-04-21T11:51:06.165Z,2656
2017-04-21T11:52:15.247Z,2980
2017-04-21T11:53:24.244Z,2928
2017-04-21T11:54:32.998Z,2876
2017-04-21T11:55:42.069Z,2248
2017-04-21T11:56:50.850Z,2048
2017-04-21T11:57:59.861Z,2476
2017-04-21T11:59:08.930Z,1940
2017-04-21T12:00:17.995Z,2052
2017-04-21T12:01:27.373Z,2456
2017-04-21T12:02:36.754Z,2124
2017-04-21T12:03:45.520Z,1956
2017-04-21T12:04:54.242Z,2396
2017-04-21T12:06:02.940Z,2536
2017-04-21T12:07:11.698Z,2644
2017-04-21T12:08:21.011Z,2028
2017-04-21T12:09:30.324Z,2544
2017-04-21T12:10:39.075Z,2528
2017-04-21T12:11:47.854Z,2632
2017-04-21T12:12:56.936Z,2424
2017-04-21T12:14:06.621Z,2572
2017-04-21T12:15:16.288Z,2532
2017-04-21T12:16:25.064Z,2504
2017-04-21T12:17:34.445Z,2480
2017-04-21T12:18:43.828Z,2376
2017-04-21T12:19:53.208Z,2292
2017-04-21T12:21:01.979Z,2260
2017-04-21T12:22:11.058Z,2272
2017-04-21T12:23:19.832Z,2316
2017-04-21T12:24:29.464Z,2416
2017-04-21T12:25:38.474Z,2512
2017-04-21T12:26:47.252Z,2528
2017-04-21T12:27:56.027Z,2692
2017-04-21T12:29:05.117Z,2740
2017-04-21T12:30:13.891Z,2744
2017-04-21T12:31:22.656Z,2632
2017-04-21T12:32:32.041Z,2500
2017-04-21T12:33:41.106Z,2384
2017-04-21T12:34:50.468Z,2348
2017-04-21T12:36:00.140Z,2260
2017-04-21T12:37:09.217Z,2176
2017-04-21T12:38:18.292Z,2172
2017-04-21T12:39:27.687Z,2152
2017-04-21T12:40:37.071Z,2140
2017-04-21T12:41:45.848Z,2108
2017-04-21T12:42:55.226Z,2084
2017-04-21T12:44:04.304Z,2104
2017-04-21T12:45:13.321Z,2104
2017-04-21T12:46:22.697Z,2072
2017-04-21T12:47:32.123Z,2036
2017-04-21T12:48:41.458Z,2024
2017-04-21T12:49:50.525Z,2024
2017-04-21T12:51:00.520Z,2076
2017-04-21T12:52:09.597Z,2112
2017-04-21T12:53:18.625Z,2220
2017-04-21T12:54:28.284Z,2324
2017-04-21T12:55:37.056Z,2296
2017-04-21T12:56:45.833Z,2304
2017-04-21T12:57:55.205Z,2308
2017-04-21T12:59:03.983Z,2272
2017-04-21T13:00:13.057Z,2208
2017-04-21T13:01:21.830Z,2128
2017-04-21T13:02:30.541Z,2044
2017-04-21T13:03:40.204Z,1980
2017-04-21T13:04:49.577Z,1964
2017-04-21T13:05:58.643Z,1900
2017-04-21T13:07:07.731Z,1872
2017-04-21T13:08:49.334Z,1880
2017-04-21T13:09:58.998Z,1936
2017-04-21T13:11:08.084Z,1968
2017-04-21T13:12:17.465Z,2032
2017-04-21T13:13:26.534Z,2048
2017-04-21T13:14:35.612Z,1972
2017-04-21T13:15:45.260Z,1956
2017-04-21T13:16:54.629Z,1996
2017-04-21T13:18:03.702Z,2028
2017-04-21T13:19:12.479Z,2012
2017-04-21T13:20:21.549Z,2000
2017-04-21T13:21:30.326Z,2012
2017-04-21T13:22:39.192Z,2080
2017-04-21T13:23:48.264Z,2084
2017-04-21T13:24:56.969Z,2076
2017-04-21T13:26:06.034Z,2044
2017-04-21T13:27:14.811Z,2020
2017-04-21T13:28:24.492Z,1908
2017-04-21T13:29:33.823Z,1848
2017-04-21T13:30:43.201Z,1736
2017-04-21T13:31:51.915Z,1676
2017-04-21T13:33:01.284Z,1688
2017-04-21T13:34:10.660Z,1688
2017-04-21T13:35:19.425Z,1732
2017-04-21T13:36:28.500Z,1848
2017-04-21T13:37:37.571Z,1888
2017-04-21T13:38:47.559Z,1872
2017-04-21T13:39:56.939Z,1832
2017-04-21T13:41:06.306Z,1888
2017-04-21T13:42:15.369Z,1932
2017-04-21T13:43:24.445Z,1940
2017-04-21T13:44:33.210Z,1904
2017-04-21T13:45:41.976Z,1904
2017-04-21T13:46:50.738Z,1908
2017-04-21T13:48:00.429Z,1944
2017-04-21T13:49:09.811Z,1932
2017-04-21T13:50:18.888Z,1968
2017-04-21T13:51:27.651Z,2036
2017-04-21T13:52:36.972Z,2020
2017-04-21T13:53:45.769Z,2040
2017-04-21T13:54:54.542Z,2120
2017-04-21T13:56:03.640Z,2136
2017-04-21T13:57:12.413Z,2124
2017-04-21T13:58:21.492Z,2072
2017-04-21T13:59:30.261Z,1976
2017-04-21T14:00:39.030Z,1860
2017-04-21T14:01:47.825Z,1836
2017-04-21T14:02:56.574Z,1840
2017-04-21T14:04:05.314Z,1976
2017-04-21T14:05:14.386Z,2088
2017-04-21T14:06:23.453Z,2068
2017-04-21T14:07:32.529Z,2044
2017-04-21T14:08:41.264Z,2044
2017-04-21T14:09:50.623Z,2028
2017-04-21T14:11:00.309Z,2060
2017-04-21T14:12:09.051Z,2120
2017-04-21T14:13:17.789Z,2144
2017-04-21T14:14:27.476Z,2152
2017-04-21T14:15:36.232Z,2076
2017-04-21T14:16:45.008Z,2052
2017-04-21T14:17:54.343Z,2096
2017-04-21T14:19:03.094Z,2128
2017-04-21T14:20:11.854Z,2136
2017-04-21T14:21:20.583Z,2100
2017-04-21T14:22:29.963Z,2032
2017-04-21T14:23:39.240Z,1948
2017-04-21T14:24:48.321Z,1848
2017-04-21T14:25:57.095Z,1788
2017-04-21T14:27:06.164Z,1872
2017-04-21T14:28:15.238Z,2096
2017-04-21T14:29:24.616Z,1988
2017-04-21T14:30:33.685Z,1956
2017-04-21T14:31:42.458Z,1752
2017-04-21T14:32:51.226Z,1584
2017-04-21T14:34:00.601Z,1640
2017-04-21T14:35:09.313Z,1884
2017-04-21T14:36:18.370Z,1728
2017-04-21T14:37:27.439Z,1700
2017-04-21T14:38:36.770Z,1660
2017-04-21T14:39:45.851Z,1648
2017-04-21T14:40:54.615Z,1640
2017-04-21T14:42:04.031Z,1572
2017-04-21T14:43:13.400Z,1480
2017-04-21T14:44:22.176Z,1400
2017-04-21T14:45:30.951Z,1372
2017-04-21T14:46:39.715Z,1380
2017-04-21T14:47:49.407Z,1340
2017-04-21T14:48:58.655Z,1248
2017-04-21T14:50:07.519Z,1180
2017-04-21T14:51:16.394Z,1148
2017-04-21T14:52:25.475Z,1084
2017-04-21T14:53:35.136Z,1040
2017-04-21T14:54:44.191Z,992
2017-04-21T14:55:53.439Z,924
2017-04-21T14:57:02.199Z,876
2017-04-21T14:58:11.274Z,792
2017-04-21T14:59:20.911Z,760
2017-04-21T15:00:30.378Z,744
2017-04-21T15:01:39.501Z,740
2017-04-21T15:02:48.261Z,672
2017-04-21T15:03:57.748Z,656
2017-04-21T15:05:06.827Z,700
2017-04-21T15:06:15.589Z,712
2017-04-21T15:07:24.353Z,708
2017-04-21T15:08:33.426Z,664
2017-04-21T15:09:43.114Z,624
2017-04-21T15:10:52.138Z,596
2017-04-21T15:12:00.898Z,560
2017-04-21T15:13:09.611Z,548
2017-04-21T15:14:18.360Z,560
2017-04-21T15:15:27.131Z,548
2017-04-21T15:16:36.509Z,520
2017-04-21T15:17:46.201Z,496
2017-04-21T15:18:55.577Z,428
2017-04-21T15:20:05.258Z,400
2017-04-21T15:21:14.238Z,428
2017-04-21T15:22:22.999Z,396
2017-04-21T15:23:32.687Z,428
2017-04-21T15:24:41.403Z,392
2017-04-21T15:25:50.167Z,352
2017-04-21T15:26:59.245Z,304
2017-04-21T15:28:08.260Z,304
2017-04-21T15:29:17.638Z,292
2017-04-21T15:30:26.697Z,280
2017-04-21T15:31:35.663Z,256
2017-04-21T15:32:44.735Z,232
2017-04-21T15:33:53.821Z,216
2017-04-21T15:35:02.846Z,200
2017-04-21T15:36:11.901Z,196
2017-04-21T15:37:20.977Z,192
2017-04-21T15:38:30.061Z,188
2017-04-21T15:39:39.133Z,212
2017-04-21T15:40:48.155Z,212
2017-04-21T15:41:56.909Z,208
2017-04-21T15:43:06.603Z,200
2017-04-21T15:44:16.296Z,224
2017-04-21T15:45:25.370Z,208
2017-04-21T15:46:34.444Z,196
2017-04-21T15:47:43.827Z,180
2017-04-21T15:48:52.851Z,180
2017-04-21T15:50:01.611Z,188
2017-04-21T15:51:10.982Z,176
2017-04-21T15:52:20.060Z,164
2017-04-21T15:53:29.446Z,164
2017-04-21T15:54:38.218Z,184
2017-04-21T15:55:47.776Z,176
2017-04-21T15:56:56.842Z,160
2017-04-21T15:58:06.517Z,152
2017-04-21T15:59:16.218Z,144
2017-04-21T16:00:25.605Z,132
2017-04-21T16:01:34.388Z,140
2017-04-21T16:02:43.764Z,192
2017-04-21T16:03:53.156Z,228
2017-04-21T16:05:02.842Z,268
2017-04-21T16:06:12.225Z,216
2017-04-21T16:07:20.992Z,180
2017-04-21T16:08:30.068Z,184
2017-04-21T16:09:39.390Z,220
2017-04-21T16:10:48.142Z,212
2017-04-21T16:11:57.169Z,192
2017-04-21T16:13:06.230Z,152
2017-04-21T16:14:15.297Z,116
2017-04-21T16:15:24.064Z,100
2017-04-21T16:16:33.140Z,88
2017-04-21T16:17:41.905Z,104
2017-04-21T16:18:51.590Z,96
2017-04-21T16:20:00.664Z,96
2017-04-21T16:21:09.737Z,120
2017-04-21T16:22:18.529Z,132